sensor_id;sensor_type;location;lat;lon;timestamp;temperature;humidity
13310;DHT22;6723;48.256;16.402;2023-06-04T00:01:58;15.70;69.70
13310;DHT22;6723;48.256;16.402;2023-06-04T00:04:25;15.60;69.80
13310;DHT22;6723;48.256;16.402;2023-06-04T00:06:51;15.50;69.90
13310;DHT22;6723;48.256;16.402;2023-06-04T00:09:17;15.50;70.00
13310;DHT22;6723;48.256;16.402;2023-06-04T00:11:43;15.50;70.30
13310;DHT22;6723;48.256;16.402;2023-06-04T00:14:11;15.50;70.50
13310;DHT22;6723;48.256;16.402;2023-06-04T00:16:37;15.50;70.60
13310;DHT22;6723;48.256;16.402;2023-06-04T00:19:02;15.40;70.50
13310;DHT22;6723;48.256;16.402;2023-06-04T00:21:28;15.40;70.50
13310;DHT22;6723;48.256;16.402;2023-06-04T00:23:54;15.30;70.40
13310;DHT22;6723;48.256;16.402;2023-06-04T00:26:20;15.40;70.70
13310;DHT22;6723;48.256;16.402;2023-06-04T00:28:46;15.30;70.50
13310;DHT22;6723;48.256;16.402;2023-06-04T00:31:11;15.40;70.90
13310;DHT22;6723;48.256;16.402;2023-06-04T00:33:41;15.40;71.00
13310;DHT22;6723;48.256;16.402;2023-06-04T00:36:07;15.30;70.90
13310;DHT22;6723;48.256;16.402;2023-06-04T00:38:33;15.30;71.00
13310;DHT22;6723;48.256;16.402;2023-06-04T00:40:59;15.30;71.10
13310;DHT22;6723;48.256;16.402;2023-06-04T00:43:25;15.30;71.10
13310;DHT22;6723;48.256;16.402;2023-06-04T00:45:53;15.30;71.00
13310;DHT22;6723;48.256;16.402;2023-06-04T00:48:20;15.30;71.10
13310;DHT22;6723;48.256;16.402;2023-06-04T00:50:47;15.20;71.30
13310;DHT22;6723;48.256;16.402;2023-06-04T00:53:14;15.20;71.40
13310;DHT22;6723;48.256;16.402;2023-06-04T00:55:41;15.20;71.50
13310;DHT22;6723;48.256;16.402;2023-06-04T00:58:07;15.20;71.70
13310;DHT22;6723;48.256;16.402;2023-06-04T01:00:36;15.10;71.80
13310;DHT22;6723;48.256;16.402;2023-06-04T01:03:07;15.10;72.00
13310;DHT22;6723;48.256;16.402;2023-06-04T01:05:48;15.10;72.20
13310;DHT22;6723;48.256;16.402;2023-06-04T01:08:18;15.00;72.30
13310;DHT22;6723;48.256;16.402;2023-06-04T01:10:54;15.10;72.50
13310;DHT22;6723;48.256;16.402;2023-06-04T01:13:21;15.00;72.30
13310;DHT22;6723;48.256;16.402;2023-06-04T01:15:48;14.90;72.30
13310;DHT22;6723;48.256;16.402;2023-06-04T01:18:23;14.90;72.40
13310;DHT22;6723;48.256;16.402;2023-06-04T01:21:14;14.90;72.60
13310;DHT22;6723;48.256;16.402;2023-06-04T01:23:50;14.80;72.90
13310;DHT22;6723;48.256;16.402;2023-06-04T01:26:28;14.80;73.00
13310;DHT22;6723;48.256;16.402;2023-06-04T01:28:55;14.80;73.20
13310;DHT22;6723;48.256;16.402;2023-06-04T01:31:22;14.80;73.10
13310;DHT22;6723;48.256;16.402;2023-06-04T01:33:55;14.80;73.20
13310;DHT22;6723;48.256;16.402;2023-06-04T01:36:23;14.90;73.40
13310;DHT22;6723;48.256;16.402;2023-06-04T01:38:51;14.80;73.40
13310;DHT22;6723;48.256;16.402;2023-06-04T01:41:17;14.80;73.40
13310;DHT22;6723;48.256;16.402;2023-06-04T01:43:43;14.80;73.50
13310;DHT22;6723;48.256;16.402;2023-06-04T01:46:09;14.80;73.50
13310;DHT22;6723;48.256;16.402;2023-06-04T01:48:34;14.80;73.60
13310;DHT22;6723;48.256;16.402;2023-06-04T01:51:02;14.70;73.90
13310;DHT22;6723;48.256;16.402;2023-06-04T01:53:28;14.70;74.10
13310;DHT22;6723;48.256;16.402;2023-06-04T01:55:54;14.70;74.30
13310;DHT22;6723;48.256;16.402;2023-06-04T01:58:20;14.70;74.30
13310;DHT22;6723;48.256;16.402;2023-06-04T02:00:55;14.60;74.10
13310;DHT22;6723;48.256;16.402;2023-06-04T02:03:26;14.50;74.20
13310;DHT22;6723;48.256;16.402;2023-06-04T02:05:53;14.50;74.40
13310;DHT22;6723;48.256;16.402;2023-06-04T02:08:18;14.50;74.90
13310;DHT22;6723;48.256;16.402;2023-06-04T02:10:47;14.50;74.90
13310;DHT22;6723;48.256;16.402;2023-06-04T02:13:13;14.50;75.00
13310;DHT22;6723;48.256;16.402;2023-06-04T02:15:40;14.50;75.00
13310;DHT22;6723;48.256;16.402;2023-06-04T02:18:25;14.50;75.00
13310;DHT22;6723;48.256;16.402;2023-06-04T02:20:52;14.40;75.00
13310;DHT22;6723;48.256;16.402;2023-06-04T02:23:18;14.40;74.90
13310;DHT22;6723;48.256;16.402;2023-06-04T02:25:45;14.30;75.00
13310;DHT22;6723;48.256;16.402;2023-06-04T02:28:11;14.30;75.30
13310;DHT22;6723;48.256;16.402;2023-06-04T02:30:37;14.30;75.70
13310;DHT22;6723;48.256;16.402;2023-06-04T02:33:03;14.30;75.90
13310;DHT22;6723;48.256;16.402;2023-06-04T02:35:32;14.30;76.20
13310;DHT22;6723;48.256;16.402;2023-06-04T02:37:58;14.30;76.20
13310;DHT22;6723;48.256;16.402;2023-06-04T02:40:27;14.40;76.40
13310;DHT22;6723;48.256;16.402;2023-06-04T02:42:54;14.30;76.30
13310;DHT22;6723;48.256;16.402;2023-06-04T02:45:21;14.40;76.50
13310;DHT22;6723;48.256;16.402;2023-06-04T02:47:47;14.40;76.60
13310;DHT22;6723;48.256;16.402;2023-06-04T02:50:14;14.40;76.70
13310;DHT22;6723;48.256;16.402;2023-06-04T02:52:41;14.50;76.80
13310;DHT22;6723;48.256;16.402;2023-06-04T02:55:08;14.50;76.90
13310;DHT22;6723;48.256;16.402;2023-06-04T02:57:35;14.50;77.00
13310;DHT22;6723;48.256;16.402;2023-06-04T03:00:01;14.60;77.10
13310;DHT22;6723;48.256;16.402;2023-06-04T03:02:46;14.50;77.20
13310;DHT22;6723;48.256;16.402;2023-06-04T03:05:14;14.60;77.30
13310;DHT22;6723;48.256;16.402;2023-06-04T03:07:42;14.60;77.30
13310;DHT22;6723;48.256;16.402;2023-06-04T03:10:09;14.50;77.30
13310;DHT22;6723;48.256;16.402;2023-06-04T03:12:36;14.50;77.70
13310;DHT22;6723;48.256;16.402;2023-06-04T03:15:02;14.60;78.10
13310;DHT22;6723;48.256;16.402;2023-06-04T03:17:28;14.60;78.10
13310;DHT22;6723;48.256;16.402;2023-06-04T03:19:54;14.60;78.60
13310;DHT22;6723;48.256;16.402;2023-06-04T03:22:21;14.70;77.70
13310;DHT22;6723;48.256;16.402;2023-06-04T03:24:47;14.70;77.80
13310;DHT22;6723;48.256;16.402;2023-06-04T03:27:13;14.70;77.60
13310;DHT22;6723;48.256;16.402;2023-06-04T03:29:38;14.70;77.40
13310;DHT22;6723;48.256;16.402;2023-06-04T03:32:05;14.80;77.60
13310;DHT22;6723;48.256;16.402;2023-06-04T03:34:31;14.80;77.50
13310;DHT22;6723;48.256;16.402;2023-06-04T03:36:59;14.90;77.50
13310;DHT22;6723;48.256;16.402;2023-06-04T03:39:25;14.90;77.50
13310;DHT22;6723;48.256;16.402;2023-06-04T03:41:51;14.90;77.30
13310;DHT22;6723;48.256;16.402;2023-06-04T03:44:17;15.00;77.40
13310;DHT22;6723;48.256;16.402;2023-06-04T03:46:44;15.00;77.50
13310;DHT22;6723;48.256;16.402;2023-06-04T03:49:11;15.10;77.60
13310;DHT22;6723;48.256;16.402;2023-06-04T03:51:41;15.10;77.40
13310;DHT22;6723;48.256;16.402;2023-06-04T03:54:07;15.20;77.70
13310;DHT22;6723;48.256;16.402;2023-06-04T03:56:33;15.20;77.40
13310;DHT22;6723;48.256;16.402;2023-06-04T03:58:59;15.20;77.30
13310;DHT22;6723;48.256;16.402;2023-06-04T04:01:26;15.20;78.10
13310;DHT22;6723;48.256;16.402;2023-06-04T04:03:52;15.20;77.50
13310;DHT22;6723;48.256;16.402;2023-06-04T04:06:19;15.30;77.40
13310;DHT22;6723;48.256;16.402;2023-06-04T04:08:46;15.40;77.10
13310;DHT22;6723;48.256;16.402;2023-06-04T04:11:15;15.50;77.10
13310;DHT22;6723;48.256;16.402;2023-06-04T04:13:43;15.60;77.00
13310;DHT22;6723;48.256;16.402;2023-06-04T04:16:10;15.60;76.40
13310;DHT22;6723;48.256;16.402;2023-06-04T04:18:36;15.80;76.70
13310;DHT22;6723;48.256;16.402;2023-06-04T04:21:03;15.70;76.50
13310;DHT22;6723;48.256;16.402;2023-06-04T04:23:30;15.90;76.30
13310;DHT22;6723;48.256;16.402;2023-06-04T04:25:58;16.00;76.50
13310;DHT22;6723;48.256;16.402;2023-06-04T04:28:29;16.10;76.20
13310;DHT22;6723;48.256;16.402;2023-06-04T04:30:55;16.10;75.70
13310;DHT22;6723;48.256;16.402;2023-06-04T04:33:30;16.20;75.50
13310;DHT22;6723;48.256;16.402;2023-06-04T04:35:58;16.10;75.70
13310;DHT22;6723;48.256;16.402;2023-06-04T04:38:25;16.00;76.10
13310;DHT22;6723;48.256;16.402;2023-06-04T04:40:54;16.00;76.40
13310;DHT22;6723;48.256;16.402;2023-06-04T04:43:34;16.10;76.50
13310;DHT22;6723;48.256;16.402;2023-06-04T04:46:00;16.20;76.50
13310;DHT22;6723;48.256;16.402;2023-06-04T04:48:26;16.20;76.60
13310;DHT22;6723;48.256;16.402;2023-06-04T04:50:52;16.30;76.70
13310;DHT22;6723;48.256;16.402;2023-06-04T04:53:19;16.20;76.60
13310;DHT22;6723;48.256;16.402;2023-06-04T04:55:45;16.30;76.70
13310;DHT22;6723;48.256;16.402;2023-06-04T04:58:10;16.20;76.90
13310;DHT22;6723;48.256;16.402;2023-06-04T05:00:36;16.30;77.00
13310;DHT22;6723;48.256;16.402;2023-06-04T05:03:02;16.30;77.00
13310;DHT22;6723;48.256;16.402;2023-06-04T05:05:27;16.30;77.10
13310;DHT22;6723;48.256;16.402;2023-06-04T05:07:53;16.30;77.30
13310;DHT22;6723;48.256;16.402;2023-06-04T05:10:19;16.30;77.30
13310;DHT22;6723;48.256;16.402;2023-06-04T05:12:56;16.40;77.30
13310;DHT22;6723;48.256;16.402;2023-06-04T05:15:22;16.30;77.70
13310;DHT22;6723;48.256;16.402;2023-06-04T05:17:48;16.20;78.00
13310;DHT22;6723;48.256;16.402;2023-06-04T05:20:14;16.10;78.30
13310;DHT22;6723;48.256;16.402;2023-06-04T05:22:41;16.20;78.70
13310;DHT22;6723;48.256;16.402;2023-06-04T05:25:08;16.20;79.40
13310;DHT22;6723;48.256;16.402;2023-06-04T05:27:35;16.20;80.60
13310;DHT22;6723;48.256;16.402;2023-06-04T05:30:04;16.20;80.30
13310;DHT22;6723;48.256;16.402;2023-06-04T05:32:30;16.20;80.30
13310;DHT22;6723;48.256;16.402;2023-06-04T05:35:02;16.40;81.40
13310;DHT22;6723;48.256;16.402;2023-06-04T05:37:30;16.30;82.50
13310;DHT22;6723;48.256;16.402;2023-06-04T05:39:56;16.40;86.00
13310;DHT22;6723;48.256;16.402;2023-06-04T05:42:22;16.40;86.90
13310;DHT22;6723;48.256;16.402;2023-06-04T05:44:49;16.60;87.20
13310;DHT22;6723;48.256;16.402;2023-06-04T05:47:16;16.60;86.50
13310;DHT22;6723;48.256;16.402;2023-06-04T05:49:42;16.60;86.40
13310;DHT22;6723;48.256;16.402;2023-06-04T05:52:12;16.60;86.10
13310;DHT22;6723;48.256;16.402;2023-06-04T05:54:37;16.60;85.20
13310;DHT22;6723;48.256;16.402;2023-06-04T05:57:04;16.70;84.80
13310;DHT22;6723;48.256;16.402;2023-06-04T05:59:31;16.80;84.20
13310;DHT22;6723;48.256;16.402;2023-06-04T06:01:58;16.80;82.90
13310;DHT22;6723;48.256;16.402;2023-06-04T06:04:24;17.00;82.70
13310;DHT22;6723;48.256;16.402;2023-06-04T06:06:50;17.20;81.50
13310;DHT22;6723;48.256;16.402;2023-06-04T06:09:17;17.40;80.90
13310;DHT22;6723;48.256;16.402;2023-06-04T06:11:42;17.40;80.20
13310;DHT22;6723;48.256;16.402;2023-06-04T06:14:08;17.50;78.10
13310;DHT22;6723;48.256;16.402;2023-06-04T06:16:34;17.50;77.90
13310;DHT22;6723;48.256;16.402;2023-06-04T06:19:00;17.70;77.70
13310;DHT22;6723;48.256;16.402;2023-06-04T06:21:26;17.90;77.40
13310;DHT22;6723;48.256;16.402;2023-06-04T06:23:53;17.80;76.60
13310;DHT22;6723;48.256;16.402;2023-06-04T06:26:19;17.80;76.30
13310;DHT22;6723;48.256;16.402;2023-06-04T06:28:45;18.00;76.20
13310;DHT22;6723;48.256;16.402;2023-06-04T06:31:11;18.20;75.60
13310;DHT22;6723;48.256;16.402;2023-06-04T06:33:37;18.10;75.30
13310;DHT22;6723;48.256;16.402;2023-06-04T06:36:15;18.30;75.60
13310;DHT22;6723;48.256;16.402;2023-06-04T06:38:44;18.50;74.80
13310;DHT22;6723;48.256;16.402;2023-06-04T06:41:11;18.50;74.50
13310;DHT22;6723;48.256;16.402;2023-06-04T06:43:54;18.50;74.50
13310;DHT22;6723;48.256;16.402;2023-06-04T06:46:20;18.80;74.60
13310;DHT22;6723;48.256;16.402;2023-06-04T06:48:46;18.60;74.10
13310;DHT22;6723;48.256;16.402;2023-06-04T06:51:14;18.60;74.30
13310;DHT22;6723;48.256;16.402;2023-06-04T06:53:40;18.50;74.00
13310;DHT22;6723;48.256;16.402;2023-06-04T06:56:06;18.40;74.70
13310;DHT22;6723;48.256;16.402;2023-06-04T06:58:32;18.40;74.50
13310;DHT22;6723;48.256;16.402;2023-06-04T07:00:58;18.40;75.10
13310;DHT22;6723;48.256;16.402;2023-06-04T07:03:28;18.40;75.10
13310;DHT22;6723;48.256;16.402;2023-06-04T07:05:54;18.40;74.30
13310;DHT22;6723;48.256;16.402;2023-06-04T07:08:19;18.40;73.60
13310;DHT22;6723;48.256;16.402;2023-06-04T07:10:46;18.30;73.40
13310;DHT22;6723;48.256;16.402;2023-06-04T07:13:12;18.20;73.90
13310;DHT22;6723;48.256;16.402;2023-06-04T07:15:37;18.10;75.30
13310;DHT22;6723;48.256;16.402;2023-06-04T07:18:03;18.00;75.90
13310;DHT22;6723;48.256;16.402;2023-06-04T07:20:29;18.00;76.30
13310;DHT22;6723;48.256;16.402;2023-06-04T07:22:56;18.10;77.10
13310;DHT22;6723;48.256;16.402;2023-06-04T07:25:22;17.70;84.00
13310;DHT22;6723;48.256;16.402;2023-06-04T07:27:49;17.60;88.60
13310;DHT22;6723;48.256;16.402;2023-06-04T07:30:18;17.20;89.70
13310;DHT22;6723;48.256;16.402;2023-06-04T07:32:47;16.90;92.70
13310;DHT22;6723;48.256;16.402;2023-06-04T07:35:13;16.70;93.30
13310;DHT22;6723;48.256;16.402;2023-06-04T07:37:49;16.80;96.40
13310;DHT22;6723;48.256;16.402;2023-06-04T07:40:15;16.70;96.70
13310;DHT22;6723;48.256;16.402;2023-06-04T07:42:42;16.80;98.30
13310;DHT22;6723;48.256;16.402;2023-06-04T07:45:09;17.00;94.30
13310;DHT22;6723;48.256;16.402;2023-06-04T07:47:54;17.00;93.70
13310;DHT22;6723;48.256;16.402;2023-06-04T07:50:21;17.30;95.40
13310;DHT22;6723;48.256;16.402;2023-06-04T07:52:46;17.50;97.20
13310;DHT22;6723;48.256;16.402;2023-06-04T07:55:12;17.70;96.10
13310;DHT22;6723;48.256;16.402;2023-06-04T07:58:02;17.90;90.80
13310;DHT22;6723;48.256;16.402;2023-06-04T08:00:28;18.40;87.30
13310;DHT22;6723;48.256;16.402;2023-06-04T08:02:54;18.40;83.70
13310;DHT22;6723;48.256;16.402;2023-06-04T08:05:22;18.60;82.70
13310;DHT22;6723;48.256;16.402;2023-06-04T08:07:48;18.60;82.40
13310;DHT22;6723;48.256;16.402;2023-06-04T08:10:17;18.80;81.50
13310;DHT22;6723;48.256;16.402;2023-06-04T08:12:43;18.90;78.60
13310;DHT22;6723;48.256;16.402;2023-06-04T08:15:09;19.00;77.50
13310;DHT22;6723;48.256;16.402;2023-06-04T08:17:36;19.20;76.00
13310;DHT22;6723;48.256;16.402;2023-06-04T08:20:02;19.40;75.00
13310;DHT22;6723;48.256;16.402;2023-06-04T08:22:32;19.50;74.10
13310;DHT22;6723;48.256;16.402;2023-06-04T08:24:57;19.80;73.80
13310;DHT22;6723;48.256;16.402;2023-06-04T08:27:23;20.00;75.00
13310;DHT22;6723;48.256;16.402;2023-06-04T08:29:49;20.20;74.00
13310;DHT22;6723;48.256;16.402;2023-06-04T08:32:14;20.50;72.60
13310;DHT22;6723;48.256;16.402;2023-06-04T08:34:40;20.60;71.70
13310;DHT22;6723;48.256;16.402;2023-06-04T08:37:06;20.70;71.40
13310;DHT22;6723;48.256;16.402;2023-06-04T08:39:32;20.50;70.80
13310;DHT22;6723;48.256;16.402;2023-06-04T08:42:05;20.90;72.60
13310;DHT22;6723;48.256;16.402;2023-06-04T08:44:33;21.10;71.00
13310;DHT22;6723;48.256;16.402;2023-06-04T08:47:04;21.50;72.00
13310;DHT22;6723;48.256;16.402;2023-06-04T08:49:34;21.70;69.80
13310;DHT22;6723;48.256;16.402;2023-06-04T08:52:02;22.20;69.40
13310;DHT22;6723;48.256;16.402;2023-06-04T08:54:29;22.40;69.00
13310;DHT22;6723;48.256;16.402;2023-06-04T08:56:57;22.70;69.00
13310;DHT22;6723;48.256;16.402;2023-06-04T08:59:36;22.80;68.10
13310;DHT22;6723;48.256;16.402;2023-06-04T09:02:02;23.00;67.70
13310;DHT22;6723;48.256;16.402;2023-06-04T09:04:31;23.40;67.20
13310;DHT22;6723;48.256;16.402;2023-06-04T09:07:01;23.90;65.30
13310;DHT22;6723;48.256;16.402;2023-06-04T09:09:28;24.00;66.80
13310;DHT22;6723;48.256;16.402;2023-06-04T09:11:56;23.30;65.80
13310;DHT22;6723;48.256;16.402;2023-06-04T09:14:23;23.70;65.40
13310;DHT22;6723;48.256;16.402;2023-06-04T09:16:51;23.70;65.40
13310;DHT22;6723;48.256;16.402;2023-06-04T09:19:18;23.30;64.70
13310;DHT22;6723;48.256;16.402;2023-06-04T09:21:56;23.20;65.20
13310;DHT22;6723;48.256;16.402;2023-06-04T09:24:25;23.20;65.50
13310;DHT22;6723;48.256;16.402;2023-06-04T09:27:09;23.60;66.80
13310;DHT22;6723;48.256;16.402;2023-06-04T09:29:35;24.10;64.60
13310;DHT22;6723;48.256;16.402;2023-06-04T09:32:01;23.80;64.40
13310;DHT22;6723;48.256;16.402;2023-06-04T09:34:28;23.60;64.70
13310;DHT22;6723;48.256;16.402;2023-06-04T09:36:55;23.50;64.90
13310;DHT22;6723;48.256;16.402;2023-06-04T09:39:20;23.40;65.70
13310;DHT22;6723;48.256;16.402;2023-06-04T09:42:04;23.30;66.30
13310;DHT22;6723;48.256;16.402;2023-06-04T09:44:30;22.70;65.80
13310;DHT22;6723;48.256;16.402;2023-06-04T09:46:57;22.80;66.60
13310;DHT22;6723;48.256;16.402;2023-06-04T09:49:23;22.80;67.40
13310;DHT22;6723;48.256;16.402;2023-06-04T09:51:49;22.90;66.90
13310;DHT22;6723;48.256;16.402;2023-06-04T09:54:16;22.80;67.00
13310;DHT22;6723;48.256;16.402;2023-06-04T09:56:42;23.10;67.60
13310;DHT22;6723;48.256;16.402;2023-06-04T09:59:13;23.10;65.70
13310;DHT22;6723;48.256;16.402;2023-06-04T10:01:40;23.10;66.00
13310;DHT22;6723;48.256;16.402;2023-06-04T10:04:09;23.30;66.70
13310;DHT22;6723;48.256;16.402;2023-06-04T10:06:39;23.80;65.80
13310;DHT22;6723;48.256;16.402;2023-06-04T10:09:08;24.00;65.20
13310;DHT22;6723;48.256;16.402;2023-06-04T10:11:40;24.60;64.70
13310;DHT22;6723;48.256;16.402;2023-06-04T10:16:45;25.20;64.10
13310;DHT22;6723;48.256;16.402;2023-06-04T11:33:16;26.90;58.70
13310;DHT22;6723;48.256;16.402;2023-06-04T11:35:42;26.90;59.00
13310;DHT22;6723;48.256;16.402;2023-06-04T11:38:09;26.80;58.60
13310;DHT22;6723;48.256;16.402;2023-06-04T11:40:35;27.20;58.90
13310;DHT22;6723;48.256;16.402;2023-06-04T11:43:01;27.30;59.00
13310;DHT22;6723;48.256;16.402;2023-06-04T11:45:28;27.20;58.00
13310;DHT22;6723;48.256;16.402;2023-06-04T11:47:57;26.50;58.60
13310;DHT22;6723;48.256;16.402;2023-06-04T11:50:26;26.30;59.90
13310;DHT22;6723;48.256;16.402;2023-06-04T11:52:53;26.00;60.90
13310;DHT22;6723;48.256;16.402;2023-06-04T11:55:20;26.60;59.80
13310;DHT22;6723;48.256;16.402;2023-06-04T11:57:49;26.70;59.80
13310;DHT22;6723;48.256;16.402;2023-06-04T12:00:17;26.40;59.90
13310;DHT22;6723;48.256;16.402;2023-06-04T12:02:52;26.50;60.10
13310;DHT22;6723;48.256;16.402;2023-06-04T12:05:19;26.50;59.40
13310;DHT22;6723;48.256;16.402;2023-06-04T12:07:47;25.80;59.70
13310;DHT22;6723;48.256;16.402;2023-06-04T12:10:20;25.70;60.80
13310;DHT22;6723;48.256;16.402;2023-06-04T12:12:46;25.50;62.10
13310;DHT22;6723;48.256;16.402;2023-06-04T12:15:18;25.40;61.60
13310;DHT22;6723;48.256;16.402;2023-06-04T12:17:52;25.40;61.00
13310;DHT22;6723;48.256;16.402;2023-06-04T12:20:27;25.50;61.60
13310;DHT22;6723;48.256;16.402;2023-06-04T12:22:55;25.80;61.40
13310;DHT22;6723;48.256;16.402;2023-06-04T12:25:25;25.70;62.00
13310;DHT22;6723;48.256;16.402;2023-06-04T12:27:52;25.70;61.60
13310;DHT22;6723;48.256;16.402;2023-06-04T12:30:18;26.40;60.50
13310;DHT22;6723;48.256;16.402;2023-06-04T12:32:43;26.70;60.20
13310;DHT22;6723;48.256;16.402;2023-06-04T12:35:11;25.50;60.80
13310;DHT22;6723;48.256;16.402;2023-06-04T12:37:37;25.70;62.00
13310;DHT22;6723;48.256;16.402;2023-06-04T12:40:03;25.10;62.50
13310;DHT22;6723;48.256;16.402;2023-06-04T12:42:32;24.70;63.60
13310;DHT22;6723;48.256;16.402;2023-06-04T12:44:58;25.00;63.50
13310;DHT22;6723;48.256;16.402;2023-06-04T12:47:24;24.80;63.70
13310;DHT22;6723;48.256;16.402;2023-06-04T12:49:49;24.50;64.60
13310;DHT22;6723;48.256;16.402;2023-06-04T12:52:16;24.70;64.90
13310;DHT22;6723;48.256;16.402;2023-06-04T12:54:42;24.90;64.30
13310;DHT22;6723;48.256;16.402;2023-06-04T12:57:08;23.90;66.00
13310;DHT22;6723;48.256;16.402;2023-06-04T12:59:34;23.50;66.80
13310;DHT22;6723;48.256;16.402;2023-06-04T13:02:00;24.00;66.70
13310;DHT22;6723;48.256;16.402;2023-06-04T13:04:26;24.10;66.90
13310;DHT22;6723;48.256;16.402;2023-06-04T13:06:52;24.30;66.60
13310;DHT22;6723;48.256;16.402;2023-06-04T13:09:20;24.50;66.70
13310;DHT22;6723;48.256;16.402;2023-06-04T13:11:48;24.40;65.80
13310;DHT22;6723;48.256;16.402;2023-06-04T13:14:15;24.60;66.60
13310;DHT22;6723;48.256;16.402;2023-06-04T13:16:41;24.40;66.90
13310;DHT22;6723;48.256;16.402;2023-06-04T13:19:07;24.10;66.80
13310;DHT22;6723;48.256;16.402;2023-06-04T13:21:34;24.00;67.70
13310;DHT22;6723;48.256;16.402;2023-06-04T13:24:01;24.00;67.90
13310;DHT22;6723;48.256;16.402;2023-06-04T13:26:26;23.70;68.90
13310;DHT22;6723;48.256;16.402;2023-06-04T13:28:52;23.80;69.10
13310;DHT22;6723;48.256;16.402;2023-06-04T13:31:18;23.90;68.50
13310;DHT22;6723;48.256;16.402;2023-06-04T13:33:44;24.10;68.60
13310;DHT22;6723;48.256;16.402;2023-06-04T13:36:10;24.30;68.40
13310;DHT22;6723;48.256;16.402;2023-06-04T13:38:36;24.90;67.50
13310;DHT22;6723;48.256;16.402;2023-06-04T13:41:01;25.10;67.30
13310;DHT22;6723;48.256;16.402;2023-06-04T13:43:27;24.80;66.60
13310;DHT22;6723;48.256;16.402;2023-06-04T13:45:53;25.10;66.70
13310;DHT22;6723;48.256;16.402;2023-06-04T13:48:19;24.80;67.30
13310;DHT22;6723;48.256;16.402;2023-06-04T13:50:45;24.60;66.80
13310;DHT22;6723;48.256;16.402;2023-06-04T13:53:11;24.50;67.70
13310;DHT22;6723;48.256;16.402;2023-06-04T13:55:39;24.20;68.30
13310;DHT22;6723;48.256;16.402;2023-06-04T13:58:05;23.60;68.80
13310;DHT22;6723;48.256;16.402;2023-06-04T14:00:33;23.70;69.90
13310;DHT22;6723;48.256;16.402;2023-06-04T14:02:59;23.60;69.90
13310;DHT22;6723;48.256;16.402;2023-06-04T14:05:25;23.40;69.80
13310;DHT22;6723;48.256;16.402;2023-06-04T14:07:54;23.40;70.70
13310;DHT22;6723;48.256;16.402;2023-06-04T14:10:20;23.10;71.40
13310;DHT22;6723;48.256;16.402;2023-06-04T14:12:46;23.40;71.00
13310;DHT22;6723;48.256;16.402;2023-06-04T14:15:11;22.90;70.90
13310;DHT22;6723;48.256;16.402;2023-06-04T14:17:41;23.20;71.50
13310;DHT22;6723;48.256;16.402;2023-06-04T14:20:07;22.80;72.00
13310;DHT22;6723;48.256;16.402;2023-06-04T14:22:37;22.60;72.50
13310;DHT22;6723;48.256;16.402;2023-06-04T14:25:07;22.60;72.30
13310;DHT22;6723;48.256;16.402;2023-06-04T14:27:34;22.90;72.20
13310;DHT22;6723;48.256;16.402;2023-06-04T14:30:04;23.20;71.30
13310;DHT22;6723;48.256;16.402;2023-06-04T14:32:30;23.40;71.30
13310;DHT22;6723;48.256;16.402;2023-06-04T14:34:57;23.50;71.40
13310;DHT22;6723;48.256;16.402;2023-06-04T14:37:23;23.10;71.50
13310;DHT22;6723;48.256;16.402;2023-06-04T14:39:49;22.90;72.10
13310;DHT22;6723;48.256;16.402;2023-06-04T14:42:16;23.20;72.60
13310;DHT22;6723;48.256;16.402;2023-06-04T14:44:41;23.60;71.10
13310;DHT22;6723;48.256;16.402;2023-06-04T14:47:08;23.50;71.80
13310;DHT22;6723;48.256;16.402;2023-06-04T14:49:33;23.50;71.40
13310;DHT22;6723;48.256;16.402;2023-06-04T14:51:59;23.80;70.80
13310;DHT22;6723;48.256;16.402;2023-06-04T14:54:26;23.50;71.50
13310;DHT22;6723;48.256;16.402;2023-06-04T14:56:51;24.00;70.50
13310;DHT22;6723;48.256;16.402;2023-06-04T14:59:17;23.80;70.70
13310;DHT22;6723;48.256;16.402;2023-06-04T15:01:43;24.20;70.90
13310;DHT22;6723;48.256;16.402;2023-06-04T15:04:09;23.80;71.70
13310;DHT22;6723;48.256;16.402;2023-06-04T15:06:35;23.60;71.20
13310;DHT22;6723;48.256;16.402;2023-06-04T15:09:01;23.70;71.70
13310;DHT22;6723;48.256;16.402;2023-06-04T15:11:29;23.80;71.90
13310;DHT22;6723;48.256;16.402;2023-06-04T15:13:55;23.50;72.40
13310;DHT22;6723;48.256;16.402;2023-06-04T15:16:21;23.60;72.60
13310;DHT22;6723;48.256;16.402;2023-06-04T15:18:48;23.60;72.90
13310;DHT22;6723;48.256;16.402;2023-06-04T15:21:14;23.60;73.30
13310;DHT22;6723;48.256;16.402;2023-06-04T15:23:40;23.60;73.30
13310;DHT22;6723;48.256;16.402;2023-06-04T15:26:07;23.40;73.50
13310;DHT22;6723;48.256;16.402;2023-06-04T15:28:33;23.10;74.10
13310;DHT22;6723;48.256;16.402;2023-06-04T15:30:58;23.20;73.80
13310;DHT22;6723;48.256;16.402;2023-06-04T15:33:24;22.90;74.30
13310;DHT22;6723;48.256;16.402;2023-06-04T15:35:50;22.70;75.00
13310;DHT22;6723;48.256;16.402;2023-06-04T15:38:16;22.80;75.70
13310;DHT22;6723;48.256;16.402;2023-06-04T15:40:41;22.80;75.40
13310;DHT22;6723;48.256;16.402;2023-06-04T15:43:07;22.30;76.30
13310;DHT22;6723;48.256;16.402;2023-06-04T15:45:33;22.10;76.50
13310;DHT22;6723;48.256;16.402;2023-06-04T15:47:59;21.70;78.00
13310;DHT22;6723;48.256;16.402;2023-06-04T15:50:25;21.40;78.90
13310;DHT22;6723;48.256;16.402;2023-06-04T15:52:51;21.10;79.60
13310;DHT22;6723;48.256;16.402;2023-06-04T15:55:17;21.00;79.90
13310;DHT22;6723;48.256;16.402;2023-06-04T15:57:42;21.20;79.80
13310;DHT22;6723;48.256;16.402;2023-06-04T16:00:09;21.20;79.80
13310;DHT22;6723;48.256;16.402;2023-06-04T16:02:35;21.30;79.80
13310;DHT22;6723;48.256;16.402;2023-06-04T16:05:01;21.30;79.50
13310;DHT22;6723;48.256;16.402;2023-06-04T16:07:26;21.00;79.70
13310;DHT22;6723;48.256;16.402;2023-06-04T16:09:52;21.00;79.10
13310;DHT22;6723;48.256;16.402;2023-06-04T16:12:18;20.90;78.50
13310;DHT22;6723;48.256;16.402;2023-06-04T16:14:44;20.40;79.40
13310;DHT22;6723;48.256;16.402;2023-06-04T16:17:09;20.50;79.30
13310;DHT22;6723;48.256;16.402;2023-06-04T16:19:36;20.60;79.50
13310;DHT22;6723;48.256;16.402;2023-06-04T16:22:01;20.60;80.10
13310;DHT22;6723;48.256;16.402;2023-06-04T16:24:27;20.70;80.70
13310;DHT22;6723;48.256;16.402;2023-06-04T16:26:53;20.80;80.90
13310;DHT22;6723;48.256;16.402;2023-06-04T16:29:19;20.60;81.70
13310;DHT22;6723;48.256;16.402;2023-06-04T16:31:45;20.30;83.20
13310;DHT22;6723;48.256;16.402;2023-06-04T16:34:10;20.50;83.70
13310;DHT22;6723;48.256;16.402;2023-06-04T16:36:36;20.70;82.60
13310;DHT22;6723;48.256;16.402;2023-06-04T16:39:03;20.80;82.70
13310;DHT22;6723;48.256;16.402;2023-06-04T16:41:30;20.90;82.60
13310;DHT22;6723;48.256;16.402;2023-06-04T16:43:56;20.90;82.10
13310;DHT22;6723;48.256;16.402;2023-06-04T16:46:25;20.90;82.10
13310;DHT22;6723;48.256;16.402;2023-06-04T16:48:51;20.90;82.20